KJFK/JFK METAR and TAF weather

Enter ICAO airport designator
Station Type Date Time Source
KJFK METAR 2021/07/24 20:51 UTC NOAA

KJFK 242051Z 18013KT 10SM FEW065 SCT100 BKN250 26/15 A3008 RMK AO2 SLP184 T02560150 56013


Station Type Date Time Source
KJFK Decoded METAR 2021/07/24 20:51 UTC NOAA

KENNEDY INTERNATIONAL AIRPORT , NY, United States (KJFK) 40-38N 073-46W 9M
Jul 24, 2021 - 04:51 PM EDT / 2021.07.24 2051 UTC
Wind: from the S (180 degrees) at 15 MPH (13 KT):0
Visibility: 10 mile(s):0
Sky conditions: mostly cloudy
Temperature: 78.1 F (25.6 C)
Dew Point: 59.0 F (15.0 C)
Relative Humidity: 51%
Pressure (altimeter): 30.08 in. Hg (1018 hPa)
Pressure tendency: 0.04 inches (1.3 hPa) lower than three hours ago
ob: KJFK 242051Z 18013KT 10SM FEW065 SCT100 BKN250 26/15 A3008 RMK AO2 SLP184 T02560150 56013
cycle: 21

Station Type Date Time Source
KJFK TAF 2021/07/24 21:39 UTC NOAA

TAF
AMD KJFK 242034Z 2421/2524 18014KT P6SM FEW060
FM250200 20010KT P6SM SCT150 BKN250
FM250700 21010KT P6SM -SHRA BKN040
TEMPO 2509/2513 5SM SHRA BKN025
FM251300 20015KT P6SM BKN040
FM251800 20016KT P6SM VCTS BKN035CB PROB30 2519/2524 5SM -TSRA BKN025CB

Example: see airport list